sensor_id;sensor_type;location;lat;lon;timestamp;P1;durP1;ratioP1;P2;durP2;ratioP2
4051;SDS011;2040;50.924;11.604;2023-05-13T00:02:17;4.40;;;3.77;;
4051;SDS011;2040;50.924;11.604;2023-05-13T00:04:44;10.43;;;4.90;;
4051;SDS011;2040;50.924;11.604;2023-05-13T00:07:09;6.63;;;4.83;;
4051;SDS011;2040;50.924;11.604;2023-05-13T00:09:35;6.10;;;3.77;;
4051;SDS011;2040;50.924;11.604;2023-05-13T00:12:00;6.20;;;4.03;;
4051;SDS011;2040;50.924;11.604;2023-05-13T00:14:27;12.70;;;4.47;;
4051;SDS011;2040;50.924;11.604;2023-05-13T00:16:53;9.63;;;4.93;;
4051;SDS011;2040;50.924;11.604;2023-05-13T00:19:18;7.57;;;4.80;;
4051;SDS011;2040;50.924;11.604;2023-05-13T00:21:44;8.67;;;4.40;;
4051;SDS011;2040;50.924;11.604;2023-05-13T00:24:10;5.70;;;4.00;;
4051;SDS011;2040;50.924;11.604;2023-05-13T00:26:35;4.30;;;3.90;;
4051;SDS011;2040;50.924;11.604;2023-05-13T00:29:01;8.60;;;4.00;;
4051;SDS011;2040;50.924;11.604;2023-05-13T00:31:26;7.10;;;4.50;;
4051;SDS011;2040;50.924;11.604;2023-05-13T00:33:52;6.23;;;3.93;;
4051;SDS011;2040;50.924;11.604;2023-05-13T00:36:18;5.50;;;4.03;;
4051;SDS011;2040;50.924;11.604;2023-05-13T00:38:43;10.90;;;5.23;;
4051;SDS011;2040;50.924;11.604;2023-05-13T00:41:09;7.77;;;5.17;;
4051;SDS011;2040;50.924;11.604;2023-05-13T00:43:35;7.30;;;4.83;;
4051;SDS011;2040;50.924;11.604;2023-05-13T00:46:01;6.63;;;4.83;;
4051;SDS011;2040;50.924;11.604;2023-05-13T00:48:26;10.53;;;5.50;;
4051;SDS011;2040;50.924;11.604;2023-05-13T00:50:52;10.50;;;5.27;;
4051;SDS011;2040;50.924;11.604;2023-05-13T00:53:18;7.57;;;5.30;;
4051;SDS011;2040;50.924;11.604;2023-05-13T00:55:44;6.63;;;5.07;;
4051;SDS011;2040;50.924;11.604;2023-05-13T00:58:10;8.20;;;4.80;;
4051;SDS011;2040;50.924;11.604;2023-05-13T01:00:38;11.57;;;5.50;;
4051;SDS011;2040;50.924;11.604;2023-05-13T01:03:17;9.43;;;5.23;;
4051;SDS011;2040;50.924;11.604;2023-05-13T01:08:25;9.30;;;6.00;;
4051;SDS011;2040;50.924;11.604;2023-05-13T01:11:00;8.03;;;5.73;;
4051;SDS011;2040;50.924;11.604;2023-05-13T01:13:32;7.90;;;5.33;;
4051;SDS011;2040;50.924;11.604;2023-05-13T01:16:10;7.47;;;4.83;;
4051;SDS011;2040;50.924;11.604;2023-05-13T01:18:41;8.37;;;5.00;;
4051;SDS011;2040;50.924;11.604;2023-05-13T01:21:09;7.50;;;4.47;;
4051;SDS011;2040;50.924;11.604;2023-05-13T01:23:35;8.13;;;5.50;;
4051;SDS011;2040;50.924;11.604;2023-05-13T01:26:01;7.40;;;4.80;;
4051;SDS011;2040;50.924;11.604;2023-05-13T01:28:26;7.20;;;5.60;;
4051;SDS011;2040;50.924;11.604;2023-05-13T01:30:53;8.63;;;6.17;;
4051;SDS011;2040;50.924;11.604;2023-05-13T01:33:21;7.10;;;4.87;;
4051;SDS011;2040;50.924;11.604;2023-05-13T01:35:47;13.03;;;6.27;;
4051;SDS011;2040;50.924;11.604;2023-05-13T01:38:13;9.70;;;5.30;;
4051;SDS011;2040;50.924;11.604;2023-05-13T01:40:39;13.13;;;5.77;;
4051;SDS011;2040;50.924;11.604;2023-05-13T01:43:05;10.10;;;7.20;;
4051;SDS011;2040;50.924;11.604;2023-05-13T01:45:31;8.40;;;6.60;;
4051;SDS011;2040;50.924;11.604;2023-05-13T01:47:57;9.30;;;5.33;;
4051;SDS011;2040;50.924;11.604;2023-05-13T01:50:23;9.80;;;4.90;;
4051;SDS011;2040;50.924;11.604;2023-05-13T01:52:49;11.53;;;6.20;;
4051;SDS011;2040;50.924;11.604;2023-05-13T01:55:15;6.77;;;5.50;;
4051;SDS011;2040;50.924;11.604;2023-05-13T01:57:40;7.07;;;5.80;;
4051;SDS011;2040;50.924;11.604;2023-05-13T02:00:06;6.87;;;5.40;;
4051;SDS011;2040;50.924;11.604;2023-05-13T02:02:32;7.17;;;5.00;;
4051;SDS011;2040;50.924;11.604;2023-05-13T02:04:57;8.77;;;6.27;;
4051;SDS011;2040;50.924;11.604;2023-05-13T02:07:23;8.90;;;5.77;;
4051;SDS011;2040;50.924;11.604;2023-05-13T02:09:49;5.43;;;4.83;;
4051;SDS011;2040;50.924;11.604;2023-05-13T02:12:14;11.03;;;4.93;;
4051;SDS011;2040;50.924;11.604;2023-05-13T02:14:40;6.40;;;4.50;;
4051;SDS011;2040;50.924;11.604;2023-05-13T02:17:06;7.10;;;5.60;;
4051;SDS011;2040;50.924;11.604;2023-05-13T02:19:31;9.43;;;5.80;;
4051;SDS011;2040;50.924;11.604;2023-05-13T02:21:57;5.47;;;4.60;;
4051;SDS011;2040;50.924;11.604;2023-05-13T02:24:22;6.17;;;4.30;;
4051;SDS011;2040;50.924;11.604;2023-05-13T02:26:48;9.30;;;4.80;;
4051;SDS011;2040;50.924;11.604;2023-05-13T02:29:13;7.10;;;5.47;;
4051;SDS011;2040;50.924;11.604;2023-05-13T02:31:39;6.40;;;5.50;;
4051;SDS011;2040;50.924;11.604;2023-05-13T02:34:07;11.53;;;6.37;;
4051;SDS011;2040;50.924;11.604;2023-05-13T02:36:32;6.20;;;5.07;;
4051;SDS011;2040;50.924;11.604;2023-05-13T02:38:58;7.00;;;5.60;;
4051;SDS011;2040;50.924;11.604;2023-05-13T02:41:23;8.33;;;5.00;;
4051;SDS011;2040;50.924;11.604;2023-05-13T02:43:49;8.87;;;5.53;;
4051;SDS011;2040;50.924;11.604;2023-05-13T02:46:14;6.97;;;4.83;;
4051;SDS011;2040;50.924;11.604;2023-05-13T02:48:40;6.60;;;4.60;;
4051;SDS011;2040;50.924;11.604;2023-05-13T02:51:06;9.80;;;4.80;;
4051;SDS011;2040;50.924;11.604;2023-05-13T02:53:31;5.90;;;4.20;;
4051;SDS011;2040;50.924;11.604;2023-05-13T02:55:57;6.17;;;4.83;;
4051;SDS011;2040;50.924;11.604;2023-05-13T02:58:23;6.13;;;4.57;;
4051;SDS011;2040;50.924;11.604;2023-05-13T03:00:48;8.47;;;5.53;;
4051;SDS011;2040;50.924;11.604;2023-05-13T03:03:14;5.43;;;4.60;;
4051;SDS011;2040;50.924;11.604;2023-05-13T03:05:40;9.10;;;4.80;;
4051;SDS011;2040;50.924;11.604;2023-05-13T03:08:05;6.63;;;4.90;;
4051;SDS011;2040;50.924;11.604;2023-05-13T03:10:31;8.60;;;4.70;;
4051;SDS011;2040;50.924;11.604;2023-05-13T03:12:56;6.00;;;4.57;;
4051;SDS011;2040;50.924;11.604;2023-05-13T03:15:22;6.70;;;5.13;;
4051;SDS011;2040;50.924;11.604;2023-05-13T03:17:47;8.73;;;4.90;;
4051;SDS011;2040;50.924;11.604;2023-05-13T03:20:13;6.93;;;5.27;;
4051;SDS011;2040;50.924;11.604;2023-05-13T03:22:39;9.97;;;6.17;;
4051;SDS011;2040;50.924;11.604;2023-05-13T03:25:04;7.00;;;5.00;;
4051;SDS011;2040;50.924;11.604;2023-05-13T03:27:31;7.63;;;5.67;;
4051;SDS011;2040;50.924;11.604;2023-05-13T03:29:56;10.60;;;6.13;;
4051;SDS011;2040;50.924;11.604;2023-05-13T03:32:22;6.57;;;4.73;;
4051;SDS011;2040;50.924;11.604;2023-05-13T03:34:49;8.77;;;5.50;;
4051;SDS011;2040;50.924;11.604;2023-05-13T03:37:15;10.23;;;6.03;;
4051;SDS011;2040;50.924;11.604;2023-05-13T03:39:41;8.47;;;5.20;;
4051;SDS011;2040;50.924;11.604;2023-05-13T03:42:06;6.20;;;5.00;;
4051;SDS011;2040;50.924;11.604;2023-05-13T03:44:32;9.67;;;4.93;;
4051;SDS011;2040;50.924;11.604;2023-05-13T03:46:57;5.63;;;4.60;;
4051;SDS011;2040;50.924;11.604;2023-05-13T03:49:23;6.77;;;5.10;;
4051;SDS011;2040;50.924;11.604;2023-05-13T03:51:48;6.67;;;4.90;;
4051;SDS011;2040;50.924;11.604;2023-05-13T03:54:14;7.27;;;5.10;;
4051;SDS011;2040;50.924;11.604;2023-05-13T03:56:39;6.33;;;4.50;;
4051;SDS011;2040;50.924;11.604;2023-05-13T03:59:05;7.10;;;4.77;;
4051;SDS011;2040;50.924;11.604;2023-05-13T04:01:30;9.57;;;4.70;;
4051;SDS011;2040;50.924;11.604;2023-05-13T04:03:56;4.90;;;4.10;;
4051;SDS011;2040;50.924;11.604;2023-05-13T04:06:21;6.17;;;4.47;;
4051;SDS011;2040;50.924;11.604;2023-05-13T04:08:47;5.23;;;4.47;;
4051;SDS011;2040;50.924;11.604;2023-05-13T04:11:13;8.83;;;4.87;;
4051;SDS011;2040;50.924;11.604;2023-05-13T04:13:39;5.27;;;3.97;;
4051;SDS011;2040;50.924;11.604;2023-05-13T04:16:05;6.43;;;4.43;;
4051;SDS011;2040;50.924;11.604;2023-05-13T04:18:32;7.87;;;5.07;;
4051;SDS011;2040;50.924;11.604;2023-05-13T04:20:57;7.13;;;4.97;;
4051;SDS011;2040;50.924;11.604;2023-05-13T04:23:23;6.40;;;4.50;;
4051;SDS011;2040;50.924;11.604;2023-05-13T04:25:49;8.30;;;4.83;;
4051;SDS011;2040;50.924;11.604;2023-05-13T04:28:16;5.37;;;4.60;;
4051;SDS011;2040;50.924;11.604;2023-05-13T04:30:42;6.17;;;4.53;;
4051;SDS011;2040;50.924;11.604;2023-05-13T04:33:08;9.50;;;5.20;;
4051;SDS011;2040;50.924;11.604;2023-05-13T04:35:33;6.30;;;4.90;;
4051;SDS011;2040;50.924;11.604;2023-05-13T04:37:59;7.70;;;4.77;;
4051;SDS011;2040;50.924;11.604;2023-05-13T04:40:24;9.70;;;5.13;;
4051;SDS011;2040;50.924;11.604;2023-05-13T04:42:50;4.93;;;4.43;;
4051;SDS011;2040;50.924;11.604;2023-05-13T04:45:18;6.40;;;4.93;;
4051;SDS011;2040;50.924;11.604;2023-05-13T04:47:44;7.37;;;5.27;;
4051;SDS011;2040;50.924;11.604;2023-05-13T04:50:10;8.10;;;5.00;;
4051;SDS011;2040;50.924;11.604;2023-05-13T04:52:36;6.53;;;5.00;;
4051;SDS011;2040;50.924;11.604;2023-05-13T04:55:01;6.50;;;5.10;;
4051;SDS011;2040;50.924;11.604;2023-05-13T04:57:27;6.70;;;4.40;;
4051;SDS011;2040;50.924;11.604;2023-05-13T04:59:52;5.60;;;4.60;;
4051;SDS011;2040;50.924;11.604;2023-05-13T05:02:18;4.83;;;4.33;;
4051;SDS011;2040;50.924;11.604;2023-05-13T05:04:43;4.67;;;3.90;;
4051;SDS011;2040;50.924;11.604;2023-05-13T05:07:09;6.03;;;4.43;;
4051;SDS011;2040;50.924;11.604;2023-05-13T05:09:35;7.87;;;4.90;;
4051;SDS011;2040;50.924;11.604;2023-05-13T05:12:00;7.33;;;4.87;;
4051;SDS011;2040;50.924;11.604;2023-05-13T05:14:26;7.87;;;4.20;;
4051;SDS011;2040;50.924;11.604;2023-05-13T05:16:51;12.60;;;4.90;;
4051;SDS011;2040;50.924;11.604;2023-05-13T05:19:17;14.03;;;4.47;;
4051;SDS011;2040;50.924;11.604;2023-05-13T05:21:47;5.93;;;4.67;;
4051;SDS011;2040;50.924;11.604;2023-05-13T05:24:14;7.40;;;4.80;;
4051;SDS011;2040;50.924;11.604;2023-05-13T05:26:39;7.87;;;5.37;;
4051;SDS011;2040;50.924;11.604;2023-05-13T05:29:05;5.30;;;4.70;;
4051;SDS011;2040;50.924;11.604;2023-05-13T05:31:30;5.57;;;4.50;;
4051;SDS011;2040;50.924;11.604;2023-05-13T05:33:56;5.83;;;4.73;;
4051;SDS011;2040;50.924;11.604;2023-05-13T05:36:23;6.97;;;5.33;;
4051;SDS011;2040;50.924;11.604;2023-05-13T05:38:49;9.37;;;4.93;;
4051;SDS011;2040;50.924;11.604;2023-05-13T05:41:14;6.90;;;4.80;;
4051;SDS011;2040;50.924;11.604;2023-05-13T05:43:40;8.07;;;5.00;;
4051;SDS011;2040;50.924;11.604;2023-05-13T05:46:05;6.90;;;4.60;;
4051;SDS011;2040;50.924;11.604;2023-05-13T05:48:31;5.53;;;4.27;;
4051;SDS011;2040;50.924;11.604;2023-05-13T05:50:56;7.27;;;4.30;;
4051;SDS011;2040;50.924;11.604;2023-05-13T05:53:22;6.20;;;4.70;;
4051;SDS011;2040;50.924;11.604;2023-05-13T05:55:48;5.60;;;4.17;;
4051;SDS011;2040;50.924;11.604;2023-05-13T05:58:13;8.17;;;4.53;;
4051;SDS011;2040;50.924;11.604;2023-05-13T06:00:40;6.80;;;4.80;;
4051;SDS011;2040;50.924;11.604;2023-05-13T06:03:05;7.63;;;5.20;;
4051;SDS011;2040;50.924;11.604;2023-05-13T06:05:31;7.90;;;4.63;;
4051;SDS011;2040;50.924;11.604;2023-05-13T06:07:56;10.53;;;5.83;;
4051;SDS011;2040;50.924;11.604;2023-05-13T06:10:22;6.40;;;4.67;;
4051;SDS011;2040;50.924;11.604;2023-05-13T06:12:48;7.40;;;5.30;;
4051;SDS011;2040;50.924;11.604;2023-05-13T06:15:15;6.27;;;4.37;;
4051;SDS011;2040;50.924;11.604;2023-05-13T06:17:40;8.07;;;4.90;;
4051;SDS011;2040;50.924;11.604;2023-05-13T06:20:06;7.60;;;4.67;;
4051;SDS011;2040;50.924;11.604;2023-05-13T06:22:32;6.50;;;4.77;;
4051;SDS011;2040;50.924;11.604;2023-05-13T06:24:58;6.80;;;4.63;;
4051;SDS011;2040;50.924;11.604;2023-05-13T06:27:23;6.50;;;4.10;;
4051;SDS011;2040;50.924;11.604;2023-05-13T06:29:49;8.80;;;4.43;;
4051;SDS011;2040;50.924;11.604;2023-05-13T06:32:15;7.43;;;3.50;;
4051;SDS011;2040;50.924;11.604;2023-05-13T06:34:41;6.40;;;4.20;;
4051;SDS011;2040;50.924;11.604;2023-05-13T06:37:10;6.47;;;3.40;;
4051;SDS011;2040;50.924;11.604;2023-05-13T06:39:36;5.87;;;4.03;;
4051;SDS011;2040;50.924;11.604;2023-05-13T06:42:02;6.50;;;4.27;;
4051;SDS011;2040;50.924;11.604;2023-05-13T06:44:28;6.80;;;4.03;;
4051;SDS011;2040;50.924;11.604;2023-05-13T06:46:53;5.70;;;3.87;;
4051;SDS011;2040;50.924;11.604;2023-05-13T06:49:19;3.80;;;3.03;;
4051;SDS011;2040;50.924;11.604;2023-05-13T06:51:45;6.00;;;4.67;;
4051;SDS011;2040;50.924;11.604;2023-05-13T06:54:12;6.17;;;4.30;;
4051;SDS011;2040;50.924;11.604;2023-05-13T06:56:37;8.40;;;3.90;;
4051;SDS011;2040;50.924;11.604;2023-05-13T06:59:03;7.33;;;4.23;;
4051;SDS011;2040;50.924;11.604;2023-05-13T07:01:29;7.43;;;3.73;;
4051;SDS011;2040;50.924;11.604;2023-05-13T07:03:54;6.53;;;3.60;;
4051;SDS011;2040;50.924;11.604;2023-05-13T07:06:20;5.60;;;4.13;;
4051;SDS011;2040;50.924;11.604;2023-05-13T07:08:45;11.30;;;4.57;;
4051;SDS011;2040;50.924;11.604;2023-05-13T07:11:11;5.00;;;3.43;;
4051;SDS011;2040;50.924;11.604;2023-05-13T07:13:36;7.07;;;3.40;;
4051;SDS011;2040;50.924;11.604;2023-05-13T07:16:02;5.77;;;3.70;;
4051;SDS011;2040;50.924;11.604;2023-05-13T07:18:28;3.30;;;2.93;;
4051;SDS011;2040;50.924;11.604;2023-05-13T07:20:53;7.67;;;3.43;;
4051;SDS011;2040;50.924;11.604;2023-05-13T07:23:22;7.40;;;4.23;;
4051;SDS011;2040;50.924;11.604;2023-05-13T07:25:49;5.37;;;3.03;;
4051;SDS011;2040;50.924;11.604;2023-05-13T07:28:16;6.83;;;3.70;;
4051;SDS011;2040;50.924;11.604;2023-05-13T07:30:43;4.63;;;3.37;;
4051;SDS011;2040;50.924;11.604;2023-05-13T07:33:09;7.70;;;3.83;;
4051;SDS011;2040;50.924;11.604;2023-05-13T07:35:34;7.03;;;3.70;;
4051;SDS011;2040;50.924;11.604;2023-05-13T07:38:01;6.00;;;3.53;;
4051;SDS011;2040;50.924;11.604;2023-05-13T07:40:27;3.10;;;2.80;;
4051;SDS011;2040;50.924;11.604;2023-05-13T07:42:53;4.40;;;2.90;;
4051;SDS011;2040;50.924;11.604;2023-05-13T07:45:18;7.23;;;3.90;;
4051;SDS011;2040;50.924;11.604;2023-05-13T07:47:44;5.80;;;3.53;;
4051;SDS011;2040;50.924;11.604;2023-05-13T07:50:09;4.20;;;3.43;;
4051;SDS011;2040;50.924;11.604;2023-05-13T07:52:35;4.93;;;2.30;;
4051;SDS011;2040;50.924;11.604;2023-05-13T07:55:01;3.17;;;2.70;;
4051;SDS011;2040;50.924;11.604;2023-05-13T07:57:26;2.33;;;2.13;;
4051;SDS011;2040;50.924;11.604;2023-05-13T07:59:52;2.30;;;1.97;;
4051;SDS011;2040;50.924;11.604;2023-05-13T08:02:18;2.37;;;2.10;;
4051;SDS011;2040;50.924;11.604;2023-05-13T08:04:44;5.20;;;2.67;;
4051;SDS011;2040;50.924;11.604;2023-05-13T08:07:09;3.80;;;2.53;;
4051;SDS011;2040;50.924;11.604;2023-05-13T08:09:35;2.87;;;2.20;;
4051;SDS011;2040;50.924;11.604;2023-05-13T08:12:01;2.53;;;2.00;;
4051;SDS011;2040;50.924;11.604;2023-05-13T08:14:27;4.00;;;2.20;;
4051;SDS011;2040;50.924;11.604;2023-05-13T08:16:53;5.13;;;2.60;;
4051;SDS011;2040;50.924;11.604;2023-05-13T08:19:18;2.90;;;2.00;;
4051;SDS011;2040;50.924;11.604;2023-05-13T08:21:44;4.60;;;1.80;;
4051;SDS011;2040;50.924;11.604;2023-05-13T08:24:10;6.60;;;2.33;;
4051;SDS011;2040;50.924;11.604;2023-05-13T08:26:36;2.90;;;2.03;;
4051;SDS011;2040;50.924;11.604;2023-05-13T08:29:02;5.13;;;2.00;;
4051;SDS011;2040;50.924;11.604;2023-05-13T08:31:27;4.10;;;2.30;;
4051;SDS011;2040;50.924;11.604;2023-05-13T08:33:53;3.77;;;2.30;;
4051;SDS011;2040;50.924;11.604;2023-05-13T08:36:19;4.70;;;2.60;;
4051;SDS011;2040;50.924;11.604;2023-05-13T08:38:45;3.00;;;2.27;;
4051;SDS011;2040;50.924;11.604;2023-05-13T08:41:11;4.33;;;2.40;;
4051;SDS011;2040;50.924;11.604;2023-05-13T08:43:38;4.53;;;2.40;;
4051;SDS011;2040;50.924;11.604;2023-05-13T08:46:03;3.83;;;2.50;;
4051;SDS011;2040;50.924;11.604;2023-05-13T08:48:33;5.13;;;2.53;;
4051;SDS011;2040;50.924;11.604;2023-05-13T08:50:59;3.40;;;2.73;;
4051;SDS011;2040;50.924;11.604;2023-05-13T08:53:26;4.23;;;2.47;;
4051;SDS011;2040;50.924;11.604;2023-05-13T08:55:53;3.20;;;2.80;;
4051;SDS011;2040;50.924;11.604;2023-05-13T08:58:19;6.80;;;2.70;;
4051;SDS011;2040;50.924;11.604;2023-05-13T09:00:44;8.33;;;2.90;;
4051;SDS011;2040;50.924;11.604;2023-05-13T09:03:12;3.60;;;2.70;;
4051;SDS011;2040;50.924;11.604;2023-05-13T09:05:38;2.73;;;2.30;;
4051;SDS011;2040;50.924;11.604;2023-05-13T09:08:06;4.50;;;2.83;;
4051;SDS011;2040;50.924;11.604;2023-05-13T09:10:36;3.00;;;2.70;;
4051;SDS011;2040;50.924;11.604;2023-05-13T09:13:02;4.00;;;2.37;;
4051;SDS011;2040;50.924;11.604;2023-05-13T09:15:28;4.10;;;2.40;;
4051;SDS011;2040;50.924;11.604;2023-05-13T09:18:01;6.37;;;2.70;;
4051;SDS011;2040;50.924;11.604;2023-05-13T09:20:28;3.13;;;2.83;;
4051;SDS011;2040;50.924;11.604;2023-05-13T09:25:33;5.40;;;2.73;;
4051;SDS011;2040;50.924;11.604;2023-05-13T09:28:02;4.47;;;3.03;;
4051;SDS011;2040;50.924;11.604;2023-05-13T09:30:31;3.67;;;2.30;;
4051;SDS011;2040;50.924;11.604;2023-05-13T09:33:11;9.03;;;2.70;;
4051;SDS011;2040;50.924;11.604;2023-05-13T09:35:39;3.20;;;2.60;;
4051;SDS011;2040;50.924;11.604;2023-05-13T09:38:12;5.30;;;2.43;;
4051;SDS011;2040;50.924;11.604;2023-05-13T09:41:19;7.80;;;2.33;;
4051;SDS011;2040;50.924;11.604;2023-05-13T09:43:37;2.70;;;2.30;;
4051;SDS011;2040;50.924;11.604;2023-05-13T09:46:04;3.67;;;2.50;;
4051;SDS011;2040;50.924;11.604;2023-05-13T09:48:33;4.43;;;2.67;;
4051;SDS011;2040;50.924;11.604;2023-05-13T09:50:59;3.70;;;2.17;;
4051;SDS011;2040;50.924;11.604;2023-05-13T09:53:25;4.07;;;2.40;;
4051;SDS011;2040;50.924;11.604;2023-05-13T09:55:56;4.00;;;2.73;;
4051;SDS011;2040;50.924;11.604;2023-05-13T09:58:24;2.83;;;2.30;;
4051;SDS011;2040;50.924;11.604;2023-05-13T10:00:52;3.13;;;2.77;;
4051;SDS011;2040;50.924;11.604;2023-05-13T10:03:17;4.63;;;2.37;;
4051;SDS011;2040;50.924;11.604;2023-05-13T10:05:43;4.50;;;3.07;;
4051;SDS011;2040;50.924;11.604;2023-05-13T10:08:10;4.17;;;2.77;;
4051;SDS011;2040;50.924;11.604;2023-05-13T10:10:37;3.83;;;2.90;;
4051;SDS011;2040;50.924;11.604;2023-05-13T10:13:04;3.30;;;2.87;;
4051;SDS011;2040;50.924;11.604;2023-05-13T10:15:35;5.27;;;2.80;;
4051;SDS011;2040;50.924;11.604;2023-05-13T10:18:18;3.10;;;2.67;;
4051;SDS011;2040;50.924;11.604;2023-05-13T10:20:44;4.37;;;2.37;;
4051;SDS011;2040;50.924;11.604;2023-05-13T10:23:11;8.73;;;2.80;;
4051;SDS011;2040;50.924;11.604;2023-05-13T10:25:37;3.77;;;2.50;;
4051;SDS011;2040;50.924;11.604;2023-05-13T10:28:03;6.20;;;2.70;;
4051;SDS011;2040;50.924;11.604;2023-05-13T10:30:29;3.87;;;2.63;;
4051;SDS011;2040;50.924;11.604;2023-05-13T10:32:56;14.87;;;3.07;;
4051;SDS011;2040;50.924;11.604;2023-05-13T10:35:23;5.00;;;3.10;;
4051;SDS011;2040;50.924;11.604;2023-05-13T10:37:58;3.80;;;3.30;;
4051;SDS011;2040;50.924;11.604;2023-05-13T10:43:32;4.77;;;2.90;;
4051;SDS011;2040;50.924;11.604;2023-05-13T10:46:06;4.57;;;2.80;;
4051;SDS011;2040;50.924;11.604;2023-05-13T10:48:45;4.20;;;2.67;;
4051;SDS011;2040;50.924;11.604;2023-05-13T10:51:12;10.17;;;2.47;;
4051;SDS011;2040;50.924;11.604;2023-05-13T10:53:49;4.00;;;2.63;;
4051;SDS011;2040;50.924;11.604;2023-05-13T10:56:20;3.50;;;2.83;;
4051;SDS011;2040;50.924;11.604;2023-05-13T10:59:00;3.70;;;2.47;;
4051;SDS011;2040;50.924;11.604;2023-05-13T11:01:34;6.03;;;2.63;;
4051;SDS011;2040;50.924;11.604;2023-05-13T11:04:10;6.43;;;3.80;;
4051;SDS011;2040;50.924;11.604;2023-05-13T11:06:38;4.60;;;2.57;;
4051;SDS011;2040;50.924;11.604;2023-05-13T11:09:06;7.83;;;3.33;;
4051;SDS011;2040;50.924;11.604;2023-05-13T11:11:35;6.60;;;3.23;;
4051;SDS011;2040;50.924;11.604;2023-05-13T11:16:27;5.50;;;2.50;;
4051;SDS011;2040;50.924;11.604;2023-05-13T11:18:53;3.20;;;2.57;;
4051;SDS011;2040;50.924;11.604;2023-05-13T11:21:34;2.87;;;2.60;;
4051;SDS011;2040;50.924;11.604;2023-05-13T11:24:01;12.00;;;2.90;;
4051;SDS011;2040;50.924;11.604;2023-05-13T11:26:47;9.23;;;2.63;;
4051;SDS011;2040;50.924;11.604;2023-05-13T11:29:14;10.53;;;2.40;;
4051;SDS011;2040;50.924;11.604;2023-05-13T11:31:55;2.80;;;2.17;;
4051;SDS011;2040;50.924;11.604;2023-05-13T11:34:22;8.43;;;2.87;;
4051;SDS011;2040;50.924;11.604;2023-05-13T11:37:10;3.63;;;2.80;;
4051;SDS011;2040;50.924;11.604;2023-05-13T11:39:35;3.20;;;2.40;;
4051;SDS011;2040;50.924;11.604;2023-05-13T11:42:07;4.10;;;2.73;;
4051;SDS011;2040;50.924;11.604;2023-05-13T11:44:34;4.43;;;2.77;;
4051;SDS011;2040;50.924;11.604;2023-05-13T11:47:01;4.20;;;2.70;;
4051;SDS011;2040;50.924;11.604;2023-05-13T11:52:02;6.60;;;2.73;;
4051;SDS011;2040;50.924;11.604;2023-05-13T11:54:29;10.97;;;2.60;;
4051;SDS011;2040;50.924;11.604;2023-05-13T11:56:55;3.03;;;2.20;;
4051;SDS011;2040;50.924;11.604;2023-05-13T11:59:21;2.60;;;2.13;;
4051;SDS011;2040;50.924;11.604;2023-05-13T12:02:02;4.00;;;2.73;;
4051;SDS011;2040;50.924;11.604;2023-05-13T12:04:28;4.70;;;2.77;;
4051;SDS011;2040;50.924;11.604;2023-05-13T12:06:54;3.40;;;2.67;;
4051;SDS011;2040;50.924;11.604;2023-05-13T12:09:21;3.60;;;2.67;;
4051;SDS011;2040;50.924;11.604;2023-05-13T12:11:47;3.03;;;2.73;;
4051;SDS011;2040;50.924;11.604;2023-05-13T12:14:15;3.33;;;2.50;;
4051;SDS011;2040;50.924;11.604;2023-05-13T12:16:42;5.70;;;3.00;;
4051;SDS011;2040;50.924;11.604;2023-05-13T12:19:08;4.30;;;2.77;;
4051;SDS011;2040;50.924;11.604;2023-05-13T12:21:35;3.13;;;2.27;;
4051;SDS011;2040;50.924;11.604;2023-05-13T12:24:14;6.53;;;2.40;;
4051;SDS011;2040;50.924;11.604;2023-05-13T12:26:49;4.13;;;2.50;;
4051;SDS011;2040;50.924;11.604;2023-05-13T12:29:15;3.67;;;2.70;;
4051;SDS011;2040;50.924;11.604;2023-05-13T12:31:41;3.97;;;2.37;;
4051;SDS011;2040;50.924;11.604;2023-05-13T12:34:08;3.97;;;2.57;;
4051;SDS011;2040;50.924;11.604;2023-05-13T12:36:37;5.33;;;2.70;;
4051;SDS011;2040;50.924;11.604;2023-05-13T12:39:03;3.00;;;2.43;;
4051;SDS011;2040;50.924;11.604;2023-05-13T12:41:35;5.43;;;2.70;;
4051;SDS011;2040;50.924;11.604;2023-05-13T12:44:13;2.67;;;2.33;;
4051;SDS011;2040;50.924;11.604;2023-05-13T12:46:49;3.30;;;2.60;;
4051;SDS011;2040;50.924;11.604;2023-05-13T12:49:16;6.63;;;2.80;;
4051;SDS011;2040;50.924;11.604;2023-05-13T12:51:41;4.03;;;2.80;;
4051;SDS011;2040;50.924;11.604;2023-05-13T12:54:07;3.40;;;2.50;;
4051;SDS011;2040;50.924;11.604;2023-05-13T12:56:35;9.13;;;2.40;;
4051;SDS011;2040;50.924;11.604;2023-05-13T12:59:01;2.90;;;2.60;;
4051;SDS011;2040;50.924;11.604;2023-05-13T13:01:27;2.90;;;2.63;;
4051;SDS011;2040;50.924;11.604;2023-05-13T13:03:52;3.77;;;2.27;;
4051;SDS011;2040;50.924;11.604;2023-05-13T13:06:18;5.70;;;2.47;;
4051;SDS011;2040;50.924;11.604;2023-05-13T13:08:43;4.20;;;2.47;;
4051;SDS011;2040;50.924;11.604;2023-05-13T13:11:09;3.83;;;2.40;;
4051;SDS011;2040;50.924;11.604;2023-05-13T13:13:38;3.10;;;2.67;;
4051;SDS011;2040;50.924;11.604;2023-05-13T13:16:04;5.93;;;2.53;;
4051;SDS011;2040;50.924;11.604;2023-05-13T13:18:30;13.70;;;2.67;;
4051;SDS011;2040;50.924;11.604;2023-05-13T13:20:55;4.30;;;2.80;;
4051;SDS011;2040;50.924;11.604;2023-05-13T13:23:21;4.07;;;2.70;;
4051;SDS011;2040;50.924;11.604;2023-05-13T13:25:46;3.10;;;2.57;;
4051;SDS011;2040;50.924;11.604;2023-05-13T13:28:12;4.00;;;2.80;;
4051;SDS011;2040;50.924;11.604;2023-05-13T13:30:38;6.83;;;3.13;;
4051;SDS011;2040;50.924;11.604;2023-05-13T13:33:09;3.23;;;2.93;;
4051;SDS011;2040;50.924;11.604;2023-05-13T13:35:35;3.83;;;2.97;;
4051;SDS011;2040;50.924;11.604;2023-05-13T13:38:01;4.07;;;2.87;;
4051;SDS011;2040;50.924;11.604;2023-05-13T13:40:33;7.20;;;2.80;;
4051;SDS011;2040;50.924;11.604;2023-05-13T13:42:59;4.57;;;2.93;;
4051;SDS011;2040;50.924;11.604;2023-05-13T13:45:26;7.00;;;3.30;;
4051;SDS011;2040;50.924;11.604;2023-05-13T13:47:51;4.37;;;3.30;;
4051;SDS011;2040;50.924;11.604;2023-05-13T13:50:17;6.17;;;3.00;;
4051;SDS011;2040;50.924;11.604;2023-05-13T13:52:43;3.90;;;3.10;;
4051;SDS011;2040;50.924;11.604;2023-05-13T13:55:08;4.10;;;3.20;;
4051;SDS011;2040;50.924;11.604;2023-05-13T13:57:36;4.83;;;2.53;;
4051;SDS011;2040;50.924;11.604;2023-05-13T14:00:02;4.07;;;2.90;;
4051;SDS011;2040;50.924;11.604;2023-05-13T14:02:28;4.57;;;2.23;;
4051;SDS011;2040;50.924;11.604;2023-05-13T14:04:54;2.57;;;2.37;;
4051;SDS011;2040;50.924;11.604;2023-05-13T14:07:20;2.43;;;2.23;;
4051;SDS011;2040;50.924;11.604;2023-05-13T14:09:45;3.23;;;2.40;;
4051;SDS011;2040;50.924;11.604;2023-05-13T14:12:11;3.70;;;2.17;;
4051;SDS011;2040;50.924;11.604;2023-05-13T14:14:36;3.50;;;2.50;;
4051;SDS011;2040;50.924;11.604;2023-05-13T14:17:02;2.70;;;2.13;;
4051;SDS011;2040;50.924;11.604;2023-05-13T14:19:28;3.10;;;2.50;;
4051;SDS011;2040;50.924;11.604;2023-05-13T14:21:53;4.13;;;2.70;;
4051;SDS011;2040;50.924;11.604;2023-05-13T14:24:19;2.40;;;2.20;;
4051;SDS011;2040;50.924;11.604;2023-05-13T14:26:44;2.27;;;2.07;;
4051;SDS011;2040;50.924;11.604;2023-05-13T14:29:10;7.43;;;2.60;;
4051;SDS011;2040;50.924;11.604;2023-05-13T14:31:35;6.97;;;2.47;;
4051;SDS011;2040;50.924;11.604;2023-05-13T14:34:01;3.13;;;2.27;;
4051;SDS011;2040;50.924;11.604;2023-05-13T14:36:26;3.33;;;2.50;;
4051;SDS011;2040;50.924;11.604;2023-05-13T14:38:52;2.47;;;2.20;;
4051;SDS011;2040;50.924;11.604;2023-05-13T14:41:18;3.40;;;2.83;;
4051;SDS011;2040;50.924;11.604;2023-05-13T14:43:45;2.83;;;2.10;;
4051;SDS011;2040;50.924;11.604;2023-05-13T14:46:11;3.60;;;2.20;;
4051;SDS011;2040;50.924;11.604;2023-05-13T14:48:37;3.00;;;2.40;;
4051;SDS011;2040;50.924;11.604;2023-05-13T14:51:02;3.87;;;3.07;;
4051;SDS011;2040;50.924;11.604;2023-05-13T14:53:28;2.90;;;2.57;;
4051;SDS011;2040;50.924;11.604;2023-05-13T14:55:53;2.67;;;2.47;;
4051;SDS011;2040;50.924;11.604;2023-05-13T14:58:19;2.50;;;2.30;;
4051;SDS011;2040;50.924;11.604;2023-05-13T15:00:45;2.80;;;2.50;;
4051;SDS011;2040;50.924;11.604;2023-05-13T15:03:10;4.93;;;2.90;;
4051;SDS011;2040;50.924;11.604;2023-05-13T15:05:36;2.77;;;2.50;;
4051;SDS011;2040;50.924;11.604;2023-05-13T15:08:01;3.60;;;2.83;;
4051;SDS011;2040;50.924;11.604;2023-05-13T15:10:27;4.07;;;2.93;;
4051;SDS011;2040;50.924;11.604;2023-05-13T15:12:53;3.37;;;2.90;;